sensor_id;sensor_type;location;lat;lon;timestamp;temperature;humidity
66086;DHT22;52868;49.758;9.586;2022-11-15T00:01:29;9.50;77.50
66086;DHT22;52868;49.758;9.586;2022-11-15T00:03:55;9.50;77.40
66086;DHT22;52868;49.758;9.586;2022-11-15T00:06:20;9.50;77.30
66086;DHT22;52868;49.758;9.586;2022-11-15T00:08:46;9.60;77.20
66086;DHT22;52868;49.758;9.586;2022-11-15T00:11:12;9.60;77.30
66086;DHT22;52868;49.758;9.586;2022-11-15T00:13:39;9.50;77.20
66086;DHT22;52868;49.758;9.586;2022-11-15T00:16:05;9.50;77.30
66086;DHT22;52868;49.758;9.586;2022-11-15T00:18:31;9.50;77.30
66086;DHT22;52868;49.758;9.586;2022-11-15T00:21:07;9.50;77.30
66086;DHT22;52868;49.758;9.586;2022-11-15T00:23:33;9.50;77.30
66086;DHT22;52868;49.758;9.586;2022-11-15T00:25:59;9.50;77.30
66086;DHT22;52868;49.758;9.586;2022-11-15T00:28:26;9.50;77.30
66086;DHT22;52868;49.758;9.586;2022-11-15T00:30:52;9.40;77.40
66086;DHT22;52868;49.758;9.586;2022-11-15T00:33:18;9.40;77.50
66086;DHT22;52868;49.758;9.586;2022-11-15T00:35:43;9.40;77.50
66086;DHT22;52868;49.758;9.586;2022-11-15T00:38:09;9.50;77.50
66086;DHT22;52868;49.758;9.586;2022-11-15T00:40:34;9.40;77.60
66086;DHT22;52868;49.758;9.586;2022-11-15T00:43:00;9.50;77.60
66086;DHT22;52868;49.758;9.586;2022-11-15T00:45:26;9.50;77.40
66086;DHT22;52868;49.758;9.586;2022-11-15T00:47:52;9.50;77.30
66086;DHT22;52868;49.758;9.586;2022-11-15T00:50:18;9.40;77.40
66086;DHT22;52868;49.758;9.586;2022-11-15T00:52:44;9.40;77.40
66086;DHT22;52868;49.758;9.586;2022-11-15T00:55:17;9.50;77.30
66086;DHT22;52868;49.758;9.586;2022-11-15T00:57:43;9.50;77.20
66086;DHT22;52868;49.758;9.586;2022-11-15T01:00:09;9.40;77.40
66086;DHT22;52868;49.758;9.586;2022-11-15T01:02:35;9.40;77.50
66086;DHT22;52868;49.758;9.586;2022-11-15T01:05:01;9.40;77.60
66086;DHT22;52868;49.758;9.586;2022-11-15T01:07:26;9.40;77.50
66086;DHT22;52868;49.758;9.586;2022-11-15T01:09:52;9.50;77.40
66086;DHT22;52868;49.758;9.586;2022-11-15T01:12:18;9.50;77.30
66086;DHT22;52868;49.758;9.586;2022-11-15T01:14:43;9.50;77.20
66086;DHT22;52868;49.758;9.586;2022-11-15T01:17:09;9.40;77.10
66086;DHT22;52868;49.758;9.586;2022-11-15T01:19:34;9.40;77.30
66086;DHT22;52868;49.758;9.586;2022-11-15T01:22:00;9.30;77.30
66086;DHT22;52868;49.758;9.586;2022-11-15T01:24:26;9.40;77.30
66086;DHT22;52868;49.758;9.586;2022-11-15T01:26:51;9.40;77.30
66086;DHT22;52868;49.758;9.586;2022-11-15T01:29:17;9.50;77.30
66086;DHT22;52868;49.758;9.586;2022-11-15T01:31:43;9.40;77.20
66086;DHT22;52868;49.758;9.586;2022-11-15T01:34:08;9.50;77.20
66086;DHT22;52868;49.758;9.586;2022-11-15T01:36:34;9.50;77.20
66086;DHT22;52868;49.758;9.586;2022-11-15T01:39:00;9.50;77.20
66086;DHT22;52868;49.758;9.586;2022-11-15T01:41:28;9.40;77.30
66086;DHT22;52868;49.758;9.586;2022-11-15T01:43:56;9.40;77.50
66086;DHT22;52868;49.758;9.586;2022-11-15T01:46:34;9.40;77.40
66086;DHT22;52868;49.758;9.586;2022-11-15T01:49:04;9.40;77.30
66086;DHT22;52868;49.758;9.586;2022-11-15T01:51:32;9.40;77.30
66086;DHT22;52868;49.758;9.586;2022-11-15T01:54:09;9.30;77.40
66086;DHT22;52868;49.758;9.586;2022-11-15T01:56:45;9.30;77.50
66086;DHT22;52868;49.758;9.586;2022-11-15T01:59:11;9.30;77.50
66086;DHT22;52868;49.758;9.586;2022-11-15T02:01:38;9.30;77.60
66086;DHT22;52868;49.758;9.586;2022-11-15T02:04:22;9.30;77.60
66086;DHT22;52868;49.758;9.586;2022-11-15T02:06:50;9.40;77.40
66086;DHT22;52868;49.758;9.586;2022-11-15T02:09:16;9.30;77.50
66086;DHT22;52868;49.758;9.586;2022-11-15T02:11:43;9.30;77.50
66086;DHT22;52868;49.758;9.586;2022-11-15T02:14:10;9.30;77.50
66086;DHT22;52868;49.758;9.586;2022-11-15T02:16:59;9.30;77.40
66086;DHT22;52868;49.758;9.586;2022-11-15T02:22:10;9.40;77.20
66086;DHT22;52868;49.758;9.586;2022-11-15T02:33:14;9.20;77.60
66086;DHT22;52868;49.758;9.586;2022-11-15T02:38:53;9.30;77.20
66086;DHT22;52868;49.758;9.586;2022-11-15T02:44:21;9.20;77.30
66086;DHT22;52868;49.758;9.586;2022-11-15T02:46:59;9.20;77.40
66086;DHT22;52868;49.758;9.586;2022-11-15T02:49:43;9.20;77.20
66086;DHT22;52868;49.758;9.586;2022-11-15T02:52:17;9.20;77.20
66086;DHT22;52868;49.758;9.586;2022-11-15T02:54:53;9.20;77.30
66086;DHT22;52868;49.758;9.586;2022-11-15T02:57:38;9.20;77.00
66086;DHT22;52868;49.758;9.586;2022-11-15T03:00:07;9.10;77.00
66086;DHT22;52868;49.758;9.586;2022-11-15T03:05:33;9.10;76.80
66086;DHT22;52868;49.758;9.586;2022-11-15T03:08:13;9.10;76.90
66086;DHT22;52868;49.758;9.586;2022-11-15T03:11:09;9.00;76.90
66086;DHT22;52868;49.758;9.586;2022-11-15T03:13:42;9.00;77.10
66086;DHT22;52868;49.758;9.586;2022-11-15T03:19:12;9.10;76.60
66086;DHT22;52868;49.758;9.586;2022-11-15T03:21:40;9.00;76.70
66086;DHT22;52868;49.758;9.586;2022-11-15T03:24:07;8.90;76.70
66086;DHT22;52868;49.758;9.586;2022-11-15T03:26:35;9.00;76.70
66086;DHT22;52868;49.758;9.586;2022-11-15T03:29:12;9.00;76.60
66086;DHT22;52868;49.758;9.586;2022-11-15T03:31:44;9.00;76.60
66086;DHT22;52868;49.758;9.586;2022-11-15T03:34:28;8.90;76.70
66086;DHT22;52868;49.758;9.586;2022-11-15T03:36:55;9.00;76.80
66086;DHT22;52868;49.758;9.586;2022-11-15T03:39:21;9.00;76.50
66086;DHT22;52868;49.758;9.586;2022-11-15T03:42:10;9.00;76.60
66086;DHT22;52868;49.758;9.586;2022-11-15T03:44:45;9.00;76.60
66086;DHT22;52868;49.758;9.586;2022-11-15T03:47:25;9.00;76.70
66086;DHT22;52868;49.758;9.586;2022-11-15T03:50:07;8.90;76.70
66086;DHT22;52868;49.758;9.586;2022-11-15T03:52:34;9.00;76.90
66086;DHT22;52868;49.758;9.586;2022-11-15T03:55:01;8.90;77.10
66086;DHT22;52868;49.758;9.586;2022-11-15T03:57:27;9.00;76.90
66086;DHT22;52868;49.758;9.586;2022-11-15T03:59:53;9.00;76.70
66086;DHT22;52868;49.758;9.586;2022-11-15T04:02:19;9.00;76.50
66086;DHT22;52868;49.758;9.586;2022-11-15T04:04:45;8.90;76.50
66086;DHT22;52868;49.758;9.586;2022-11-15T04:07:11;8.90;76.50
66086;DHT22;52868;49.758;9.586;2022-11-15T04:09:36;8.90;76.50
66086;DHT22;52868;49.758;9.586;2022-11-15T04:12:22;8.90;76.50
66086;DHT22;52868;49.758;9.586;2022-11-15T04:15:17;9.00;76.50
66086;DHT22;52868;49.758;9.586;2022-11-15T04:21:24;8.90;76.20
66086;DHT22;52868;49.758;9.586;2022-11-15T04:24:08;8.90;76.10
66086;DHT22;52868;49.758;9.586;2022-11-15T04:26:40;8.80;76.00
66086;DHT22;52868;49.758;9.586;2022-11-15T04:29:05;8.80;76.10
66086;DHT22;52868;49.758;9.586;2022-11-15T04:31:50;8.80;76.10
66086;DHT22;52868;49.758;9.586;2022-11-15T04:34:15;8.70;76.30
66086;DHT22;52868;49.758;9.586;2022-11-15T04:36:44;8.70;76.20
66086;DHT22;52868;49.758;9.586;2022-11-15T04:39:28;8.70;76.30
66086;DHT22;52868;49.758;9.586;2022-11-15T04:41:54;8.70;76.20
66086;DHT22;52868;49.758;9.586;2022-11-15T04:44:19;8.70;76.20
66086;DHT22;52868;49.758;9.586;2022-11-15T04:46:45;8.70;76.10
66086;DHT22;52868;49.758;9.586;2022-11-15T04:49:10;8.70;76.20
66086;DHT22;52868;49.758;9.586;2022-11-15T04:51:36;8.70;76.10
66086;DHT22;52868;49.758;9.586;2022-11-15T04:54:01;8.70;76.10
66086;DHT22;52868;49.758;9.586;2022-11-15T04:56:27;8.60;76.20
66086;DHT22;52868;49.758;9.586;2022-11-15T04:58:53;8.70;76.30
66086;DHT22;52868;49.758;9.586;2022-11-15T05:01:18;8.70;76.00
66086;DHT22;52868;49.758;9.586;2022-11-15T05:03:44;8.60;76.20
66086;DHT22;52868;49.758;9.586;2022-11-15T05:06:29;8.70;76.30
66086;DHT22;52868;49.758;9.586;2022-11-15T05:08:56;8.70;76.20
66086;DHT22;52868;49.758;9.586;2022-11-15T05:11:22;8.70;76.00
66086;DHT22;52868;49.758;9.586;2022-11-15T05:13:48;8.80;75.90
66086;DHT22;52868;49.758;9.586;2022-11-15T05:16:14;8.70;75.80
66086;DHT22;52868;49.758;9.586;2022-11-15T05:18:39;8.70;75.70
66086;DHT22;52868;49.758;9.586;2022-11-15T05:21:13;8.70;75.70
66086;DHT22;52868;49.758;9.586;2022-11-15T05:23:40;8.60;75.90
66086;DHT22;52868;49.758;9.586;2022-11-15T05:26:07;8.60;75.90
66086;DHT22;52868;49.758;9.586;2022-11-15T05:28:33;8.70;75.80
66086;DHT22;52868;49.758;9.586;2022-11-15T05:31:03;8.60;75.80
66086;DHT22;52868;49.758;9.586;2022-11-15T05:33:30;8.60;75.70
66086;DHT22;52868;49.758;9.586;2022-11-15T05:36:03;8.60;75.70
66086;DHT22;52868;49.758;9.586;2022-11-15T05:38:29;8.70;75.60
66086;DHT22;52868;49.758;9.586;2022-11-15T05:40:55;8.60;75.60
66086;DHT22;52868;49.758;9.586;2022-11-15T05:43:21;8.50;75.70
66086;DHT22;52868;49.758;9.586;2022-11-15T05:45:47;8.60;75.90
66086;DHT22;52868;49.758;9.586;2022-11-15T05:48:13;8.60;75.50
66086;DHT22;52868;49.758;9.586;2022-11-15T05:50:42;8.60;75.40
66086;DHT22;52868;49.758;9.586;2022-11-15T05:53:10;8.70;75.50
66086;DHT22;52868;49.758;9.586;2022-11-15T05:55:38;8.70;75.50
66086;DHT22;52868;49.758;9.586;2022-11-15T05:58:04;8.70;75.40
66086;DHT22;52868;49.758;9.586;2022-11-15T06:00:29;8.70;75.30
66086;DHT22;52868;49.758;9.586;2022-11-15T06:02:55;8.70;75.10
66086;DHT22;52868;49.758;9.586;2022-11-15T06:05:21;8.50;75.30
66086;DHT22;52868;49.758;9.586;2022-11-15T06:07:46;8.70;75.50
66086;DHT22;52868;49.758;9.586;2022-11-15T06:10:12;8.70;75.30
66086;DHT22;52868;49.758;9.586;2022-11-15T06:12:37;8.60;75.30
66086;DHT22;52868;49.758;9.586;2022-11-15T06:15:03;8.60;75.30
66086;DHT22;52868;49.758;9.586;2022-11-15T06:17:29;8.60;75.40
66086;DHT22;52868;49.758;9.586;2022-11-15T06:19:55;8.60;75.40
66086;DHT22;52868;49.758;9.586;2022-11-15T06:22:20;8.60;75.60
66086;DHT22;52868;49.758;9.586;2022-11-15T06:24:46;8.60;75.60
66086;DHT22;52868;49.758;9.586;2022-11-15T06:27:12;8.70;75.60
66086;DHT22;52868;49.758;9.586;2022-11-15T06:29:37;8.70;75.50
66086;DHT22;52868;49.758;9.586;2022-11-15T06:32:03;8.70;75.30
66086;DHT22;52868;49.758;9.586;2022-11-15T06:34:29;8.50;75.60
66086;DHT22;52868;49.758;9.586;2022-11-15T06:36:54;8.60;75.90
66086;DHT22;52868;49.758;9.586;2022-11-15T06:39:20;8.60;75.90
66086;DHT22;52868;49.758;9.586;2022-11-15T06:41:46;8.70;75.70
66086;DHT22;52868;49.758;9.586;2022-11-15T06:44:11;8.60;75.70
66086;DHT22;52868;49.758;9.586;2022-11-15T06:46:37;8.60;75.80
66086;DHT22;52868;49.758;9.586;2022-11-15T06:49:02;8.70;75.90
66086;DHT22;52868;49.758;9.586;2022-11-15T06:51:28;8.70;75.80
66086;DHT22;52868;49.758;9.586;2022-11-15T06:53:54;8.60;75.90
66086;DHT22;52868;49.758;9.586;2022-11-15T06:56:20;8.60;76.00
66086;DHT22;52868;49.758;9.586;2022-11-15T06:58:45;8.50;76.10
66086;DHT22;52868;49.758;9.586;2022-11-15T07:01:13;8.60;76.30
66086;DHT22;52868;49.758;9.586;2022-11-15T07:03:40;8.70;76.20
66086;DHT22;52868;49.758;9.586;2022-11-15T07:06:07;8.70;76.00
66086;DHT22;52868;49.758;9.586;2022-11-15T07:08:33;8.70;75.90
66086;DHT22;52868;49.758;9.586;2022-11-15T07:11:00;8.80;75.90
66086;DHT22;52868;49.758;9.586;2022-11-15T07:13:28;8.70;76.00
66086;DHT22;52868;49.758;9.586;2022-11-15T07:15:54;8.80;76.00
66086;DHT22;52868;49.758;9.586;2022-11-15T07:18:19;8.80;76.00
66086;DHT22;52868;49.758;9.586;2022-11-15T07:20:45;8.80;76.00
66086;DHT22;52868;49.758;9.586;2022-11-15T07:23:11;8.80;76.00
66086;DHT22;52868;49.758;9.586;2022-11-15T07:25:36;8.70;76.10
66086;DHT22;52868;49.758;9.586;2022-11-15T07:28:02;8.80;76.20
66086;DHT22;52868;49.758;9.586;2022-11-15T07:30:28;8.80;76.10
66086;DHT22;52868;49.758;9.586;2022-11-15T07:32:59;8.80;76.00
66086;DHT22;52868;49.758;9.586;2022-11-15T07:35:28;8.80;76.10
66086;DHT22;52868;49.758;9.586;2022-11-15T07:38:02;8.70;76.20
66086;DHT22;52868;49.758;9.586;2022-11-15T07:40:29;8.80;76.10
66086;DHT22;52868;49.758;9.586;2022-11-15T07:43:03;8.70;76.20
66086;DHT22;52868;49.758;9.586;2022-11-15T07:45:29;8.70;76.40
66086;DHT22;52868;49.758;9.586;2022-11-15T07:47:55;8.80;76.40
66086;DHT22;52868;49.758;9.586;2022-11-15T07:50:25;8.80;76.20
66086;DHT22;52868;49.758;9.586;2022-11-15T07:52:58;8.80;76.20
66086;DHT22;52868;49.758;9.586;2022-11-15T07:55:26;8.80;76.30
66086;DHT22;52868;49.758;9.586;2022-11-15T07:57:52;8.80;76.40
66086;DHT22;52868;49.758;9.586;2022-11-15T08:00:19;8.80;76.40
66086;DHT22;52868;49.758;9.586;2022-11-15T08:02:45;8.80;76.40
66086;DHT22;52868;49.758;9.586;2022-11-15T08:05:10;8.70;76.50
66086;DHT22;52868;49.758;9.586;2022-11-15T08:07:36;8.80;76.60
66086;DHT22;52868;49.758;9.586;2022-11-15T08:10:04;8.80;76.50
66086;DHT22;52868;49.758;9.586;2022-11-15T08:12:31;8.90;76.40
66086;DHT22;52868;49.758;9.586;2022-11-15T08:14:57;8.90;76.30
66086;DHT22;52868;49.758;9.586;2022-11-15T08:17:24;8.80;76.30
66086;DHT22;52868;49.758;9.586;2022-11-15T08:19:50;9.00;76.40
66086;DHT22;52868;49.758;9.586;2022-11-15T08:22:15;9.00;76.30
66086;DHT22;52868;49.758;9.586;2022-11-15T08:24:41;9.00;76.50
66086;DHT22;52868;49.758;9.586;2022-11-15T08:27:07;9.00;76.50
66086;DHT22;52868;49.758;9.586;2022-11-15T08:29:50;9.00;76.60
66086;DHT22;52868;49.758;9.586;2022-11-15T08:32:16;9.00;76.80
66086;DHT22;52868;49.758;9.586;2022-11-15T08:34:43;9.00;76.80
66086;DHT22;52868;49.758;9.586;2022-11-15T08:37:08;9.00;76.90
66086;DHT22;52868;49.758;9.586;2022-11-15T08:39:34;9.00;76.80
66086;DHT22;52868;49.758;9.586;2022-11-15T08:42:00;9.10;77.00
66086;DHT22;52868;49.758;9.586;2022-11-15T08:44:25;9.10;76.90
66086;DHT22;52868;49.758;9.586;2022-11-15T08:46:51;9.10;76.80
66086;DHT22;52868;49.758;9.586;2022-11-15T08:49:16;9.20;76.70
66086;DHT22;52868;49.758;9.586;2022-11-15T08:51:42;9.20;76.80
66086;DHT22;52868;49.758;9.586;2022-11-15T08:54:08;9.10;76.90
66086;DHT22;52868;49.758;9.586;2022-11-15T08:56:33;9.20;76.90
66086;DHT22;52868;49.758;9.586;2022-11-15T08:58:59;9.20;76.90
66086;DHT22;52868;49.758;9.586;2022-11-15T09:01:25;9.20;76.90
66086;DHT22;52868;49.758;9.586;2022-11-15T09:03:50;9.30;76.80
66086;DHT22;52868;49.758;9.586;2022-11-15T09:06:16;9.30;76.90
66086;DHT22;52868;49.758;9.586;2022-11-15T09:08:42;9.30;77.00
66086;DHT22;52868;49.758;9.586;2022-11-15T09:11:09;9.30;77.30
66086;DHT22;52868;49.758;9.586;2022-11-15T09:13:36;9.30;77.10
66086;DHT22;52868;49.758;9.586;2022-11-15T09:16:05;9.40;77.10
66086;DHT22;52868;49.758;9.586;2022-11-15T09:18:31;9.40;77.20
66086;DHT22;52868;49.758;9.586;2022-11-15T09:20:57;9.40;77.30
66086;DHT22;52868;49.758;9.586;2022-11-15T09:23:24;9.30;77.30
66086;DHT22;52868;49.758;9.586;2022-11-15T09:25:50;9.40;77.20
66086;DHT22;52868;49.758;9.586;2022-11-15T09:28:16;9.40;77.20
66086;DHT22;52868;49.758;9.586;2022-11-15T09:30:41;9.40;77.40
66086;DHT22;52868;49.758;9.586;2022-11-15T09:33:08;9.40;77.20
66086;DHT22;52868;49.758;9.586;2022-11-15T09:35:34;9.50;77.00
66086;DHT22;52868;49.758;9.586;2022-11-15T09:38:00;9.50;76.80
66086;DHT22;52868;49.758;9.586;2022-11-15T09:40:26;9.60;77.00
66086;DHT22;52868;49.758;9.586;2022-11-15T09:46:18;9.60;77.00
66086;DHT22;52868;49.758;9.586;2022-11-15T09:48:55;9.60;77.00
66086;DHT22;52868;49.758;9.586;2022-11-15T09:51:40;9.60;77.00
66086;DHT22;52868;49.758;9.586;2022-11-15T09:54:31;9.60;77.20
66086;DHT22;52868;49.758;9.586;2022-11-15T09:57:12;9.70;76.70
66086;DHT22;52868;49.758;9.586;2022-11-15T10:05:20;9.60;76.70
66086;DHT22;52868;49.758;9.586;2022-11-15T10:08:02;9.70;77.40
66086;DHT22;52868;49.758;9.586;2022-11-15T10:10:42;9.70;77.30
66086;DHT22;52868;49.758;9.586;2022-11-15T10:13:23;9.70;76.80
66086;DHT22;52868;49.758;9.586;2022-11-15T10:15:50;9.70;76.60
66086;DHT22;52868;49.758;9.586;2022-11-15T10:18:18;9.70;76.50
66086;DHT22;52868;49.758;9.586;2022-11-15T10:20:58;9.70;76.40
66086;DHT22;52868;49.758;9.586;2022-11-15T10:23:24;9.70;76.30
66086;DHT22;52868;49.758;9.586;2022-11-15T10:25:57;9.80;76.20
66086;DHT22;52868;49.758;9.586;2022-11-15T10:28:28;9.80;76.20
66086;DHT22;52868;49.758;9.586;2022-11-15T10:30:59;9.80;76.10
66086;DHT22;52868;49.758;9.586;2022-11-15T10:33:32;9.80;76.10
66086;DHT22;52868;49.758;9.586;2022-11-15T10:46:34;9.90;75.90
66086;DHT22;52868;49.758;9.586;2022-11-15T10:49:25;9.90;75.80
66086;DHT22;52868;49.758;9.586;2022-11-15T10:51:54;10.00;75.90
66086;DHT22;52868;49.758;9.586;2022-11-15T10:54:48;9.90;75.90
66086;DHT22;52868;49.758;9.586;2022-11-15T10:57:17;10.00;75.80
66086;DHT22;52868;49.758;9.586;2022-11-15T11:00:46;10.00;76.10
66086;DHT22;52868;49.758;9.586;2022-11-15T11:05:39;10.00;75.90
66086;DHT22;52868;49.758;9.586;2022-11-15T11:10:52;10.00;75.80
66086;DHT22;52868;49.758;9.586;2022-11-15T11:13:39;10.10;75.80
66086;DHT22;52868;49.758;9.586;2022-11-15T11:16:17;10.10;75.80
66086;DHT22;52868;49.758;9.586;2022-11-15T11:21:14;10.10;76.00
66086;DHT22;52868;49.758;9.586;2022-11-15T11:23:53;10.20;76.00
66086;DHT22;52868;49.758;9.586;2022-11-15T11:26:42;10.20;76.00
66086;DHT22;52868;49.758;9.586;2022-11-15T11:29:18;10.10;75.90
66086;DHT22;52868;49.758;9.586;2022-11-15T11:34:36;10.20;75.80
66086;DHT22;52868;49.758;9.586;2022-11-15T11:37:21;10.20;75.90
66086;DHT22;52868;49.758;9.586;2022-11-15T11:42:39;10.20;75.80
66086;DHT22;52868;49.758;9.586;2022-11-15T11:45:27;10.20;75.90
66086;DHT22;52868;49.758;9.586;2022-11-15T11:48:02;10.20;75.80
66086;DHT22;52868;49.758;9.586;2022-11-15T11:50:30;10.20;76.00
66086;DHT22;52868;49.758;9.586;2022-11-15T11:55:45;10.20;76.00
66086;DHT22;52868;49.758;9.586;2022-11-15T12:00:59;10.30;76.20
66086;DHT22;52868;49.758;9.586;2022-11-15T12:03:28;10.30;76.20
66086;DHT22;52868;49.758;9.586;2022-11-15T12:08:58;10.30;75.90
66086;DHT22;52868;49.758;9.586;2022-11-15T12:14:51;10.30;75.80
66086;DHT22;52868;49.758;9.586;2022-11-15T12:17:24;10.30;75.80
66086;DHT22;52868;49.758;9.586;2022-11-15T12:19:58;10.30;76.20
66086;DHT22;52868;49.758;9.586;2022-11-15T12:25:14;10.40;76.00
66086;DHT22;52868;49.758;9.586;2022-11-15T12:28:36;10.40;76.10
66086;DHT22;52868;49.758;9.586;2022-11-15T12:31:11;10.40;76.00
66086;DHT22;52868;49.758;9.586;2022-11-15T12:33:48;10.40;76.20
66086;DHT22;52868;49.758;9.586;2022-11-15T12:41:30;10.50;76.50
66086;DHT22;52868;49.758;9.586;2022-11-15T12:43:57;10.50;76.40
66086;DHT22;52868;49.758;9.586;2022-11-15T12:49:01;10.60;76.40
66086;DHT22;52868;49.758;9.586;2022-11-15T12:52:03;10.50;76.20
66086;DHT22;52868;49.758;9.586;2022-11-15T12:59:52;10.60;76.40
66086;DHT22;52868;49.758;9.586;2022-11-15T13:02:32;10.70;76.40
66086;DHT22;52868;49.758;9.586;2022-11-15T13:17:50;10.70;76.90
66086;DHT22;52868;49.758;9.586;2022-11-15T13:20:18;10.70;76.90
66086;DHT22;52868;49.758;9.586;2022-11-15T13:22:53;10.70;76.50
66086;DHT22;52868;49.758;9.586;2022-11-15T13:25:48;10.70;76.60
66086;DHT22;52868;49.758;9.586;2022-11-15T13:30:53;10.80;76.60
66086;DHT22;52868;49.758;9.586;2022-11-15T13:33:30;10.70;76.50
66086;DHT22;52868;49.758;9.586;2022-11-15T13:35:58;10.70;76.70
66086;DHT22;52868;49.758;9.586;2022-11-15T13:38:28;10.80;76.90
66086;DHT22;52868;49.758;9.586;2022-11-15T13:40:54;10.80;76.90
66086;DHT22;52868;49.758;9.586;2022-11-15T13:43:34;10.80;77.00
66086;DHT22;52868;49.758;9.586;2022-11-15T13:46:16;10.80;77.20
66086;DHT22;52868;49.758;9.586;2022-11-15T13:48:45;10.80;77.30
66086;DHT22;52868;49.758;9.586;2022-11-15T13:51:29;10.80;77.20
66086;DHT22;52868;49.758;9.586;2022-11-15T13:54:02;10.90;77.20
66086;DHT22;52868;49.758;9.586;2022-11-15T13:56:30;10.80;77.30
66086;DHT22;52868;49.758;9.586;2022-11-15T13:58:56;10.90;77.20
66086;DHT22;52868;49.758;9.586;2022-11-15T14:01:22;10.90;77.10
66086;DHT22;52868;49.758;9.586;2022-11-15T14:03:58;10.80;76.90
66086;DHT22;52868;49.758;9.586;2022-11-15T14:06:25;10.90;76.90
66086;DHT22;52868;49.758;9.586;2022-11-15T14:11:24;10.90;77.10
66086;DHT22;52868;49.758;9.586;2022-11-15T14:16:53;10.90;77.60
66086;DHT22;52868;49.758;9.586;2022-11-15T14:22:18;10.90;77.70
66086;DHT22;52868;49.758;9.586;2022-11-15T14:25:04;11.00;77.80
66086;DHT22;52868;49.758;9.586;2022-11-15T14:27:31;11.00;77.80
66086;DHT22;52868;49.758;9.586;2022-11-15T14:29:57;10.90;77.50
66086;DHT22;52868;49.758;9.586;2022-11-15T14:32:25;10.90;77.50
66086;DHT22;52868;49.758;9.586;2022-11-15T14:35:02;10.90;77.40
66086;DHT22;52868;49.758;9.586;2022-11-15T14:37:30;10.90;77.40
66086;DHT22;52868;49.758;9.586;2022-11-15T14:39:59;10.90;77.50
66086;DHT22;52868;49.758;9.586;2022-11-15T14:42:25;11.00;77.70
66086;DHT22;52868;49.758;9.586;2022-11-15T14:44:51;11.00;78.00
66086;DHT22;52868;49.758;9.586;2022-11-15T14:47:17;11.00;77.90
66086;DHT22;52868;49.758;9.586;2022-11-15T14:49:43;11.00;77.80
66086;DHT22;52868;49.758;9.586;2022-11-15T14:52:27;11.00;77.70
66086;DHT22;52868;49.758;9.586;2022-11-15T14:54:54;11.00;77.70
66086;DHT22;52868;49.758;9.586;2022-11-15T14:57:21;11.00;77.70
66086;DHT22;52868;49.758;9.586;2022-11-15T14:59:46;10.90;77.50
66086;DHT22;52868;49.758;9.586;2022-11-15T15:02:18;11.00;77.70
66086;DHT22;52868;49.758;9.586;2022-11-15T15:04:44;11.00;78.00
66086;DHT22;52868;49.758;9.586;2022-11-15T15:07:10;11.00;77.80
66086;DHT22;52868;49.758;9.586;2022-11-15T15:09:35;11.00;77.70
66086;DHT22;52868;49.758;9.586;2022-11-15T15:12:01;10.90;77.60
66086;DHT22;52868;49.758;9.586;2022-11-15T15:14:27;11.00;77.30
66086;DHT22;52868;49.758;9.586;2022-11-15T15:16:52;10.90;77.30
66086;DHT22;52868;49.758;9.586;2022-11-15T15:19:18;11.00;77.40
66086;DHT22;52868;49.758;9.586;2022-11-15T15:21:43;10.90;77.50
66086;DHT22;52868;49.758;9.586;2022-11-15T15:24:15;10.90;77.50
66086;DHT22;52868;49.758;9.586;2022-11-15T15:26:40;10.90;77.50
66086;DHT22;52868;49.758;9.586;2022-11-15T15:29:06;10.90;77.60
66086;DHT22;52868;49.758;9.586;2022-11-15T15:31:34;10.90;77.60
66086;DHT22;52868;49.758;9.586;2022-11-15T15:33:59;10.90;77.70
66086;DHT22;52868;49.758;9.586;2022-11-15T15:36:25;10.90;77.50
66086;DHT22;52868;49.758;9.586;2022-11-15T15:38:50;11.00;78.10
66086;DHT22;52868;49.758;9.586;2022-11-15T15:41:16;11.00;78.40
66086;DHT22;52868;49.758;9.586;2022-11-15T15:43:42;11.00;78.20
66086;DHT22;52868;49.758;9.586;2022-11-15T15:46:14;11.00;78.10
66086;DHT22;52868;49.758;9.586;2022-11-15T15:48:40;11.00;78.00
66086;DHT22;52868;49.758;9.586;2022-11-15T15:51:06;10.90;77.90
66086;DHT22;52868;49.758;9.586;2022-11-15T15:53:32;10.90;77.90
66086;DHT22;52868;49.758;9.586;2022-11-15T15:55:57;10.90;77.80
66086;DHT22;52868;49.758;9.586;2022-11-15T15:58:23;10.90;77.80
66086;DHT22;52868;49.758;9.586;2022-11-15T16:00:49;10.90;77.80
66086;DHT22;52868;49.758;9.586;2022-11-15T16:03:14;10.90;77.80
66086;DHT22;52868;49.758;9.586;2022-11-15T16:05:40;10.90;77.80
66086;DHT22;52868;49.758;9.586;2022-11-15T16:08:07;10.90;77.80
66086;DHT22;52868;49.758;9.586;2022-11-15T16:10:35;10.90;77.80
66086;DHT22;52868;49.758;9.586;2022-11-15T16:13:02;10.90;77.80
66086;DHT22;52868;49.758;9.586;2022-11-15T16:15:30;10.90;77.90
66086;DHT22;52868;49.758;9.586;2022-11-15T16:17:58;10.90;78.00
66086;DHT22;52868;49.758;9.586;2022-11-15T16:22:49;10.90;77.80
66086;DHT22;52868;49.758;9.586;2022-11-15T16:25:15;10.90;77.80
66086;DHT22;52868;49.758;9.586;2022-11-15T16:27:40;10.80;77.90
66086;DHT22;52868;49.758;9.586;2022-11-15T16:30:18;10.80;78.30
66086;DHT22;52868;49.758;9.586;2022-11-15T16:32:45;10.90;78.20
66086;DHT22;52868;49.758;9.586;2022-11-15T16:35:15;10.80;78.10
66086;DHT22;52868;49.758;9.586;2022-11-15T16:37:41;10.80;77.90
66086;DHT22;52868;49.758;9.586;2022-11-15T16:40:27;10.80;77.70
66086;DHT22;52868;49.758;9.586;2022-11-15T16:42:53;10.80;77.80
66086;DHT22;52868;49.758;9.586;2022-11-15T16:45:21;10.80;77.90
66086;DHT22;52868;49.758;9.586;2022-11-15T16:47:46;10.90;78.00
66086;DHT22;52868;49.758;9.586;2022-11-15T16:50:33;10.80;78.20
66086;DHT22;52868;49.758;9.586;2022-11-15T16:53:04;10.90;78.00
66086;DHT22;52868;49.758;9.586;2022-11-15T16:55:29;10.80;78.00
66086;DHT22;52868;49.758;9.586;2022-11-15T16:57:56;10.80;77.90
66086;DHT22;52868;49.758;9.586;2022-11-15T17:00:23;10.80;78.00
66086;DHT22;52868;49.758;9.586;2022-11-15T17:02:50;10.80;78.20
66086;DHT22;52868;49.758;9.586;2022-11-15T17:05:18;10.80;78.20
66086;DHT22;52868;49.758;9.586;2022-11-15T17:07:50;10.80;78.10
66086;DHT22;52868;49.758;9.586;2022-11-15T17:10:21;10.80;78.10
66086;DHT22;52868;49.758;9.586;2022-11-15T17:12:47;10.80;78.20
66086;DHT22;52868;49.758;9.586;2022-11-15T17:15:13;10.80;78.10
66086;DHT22;52868;49.758;9.586;2022-11-15T17:17:39;10.80;78.00
66086;DHT22;52868;49.758;9.586;2022-11-15T17:20:06;10.80;77.90
66086;DHT22;52868;49.758;9.586;2022-11-15T17:22:37;10.80;78.30
66086;DHT22;52868;49.758;9.586;2022-11-15T17:25:03;10.80;78.20
66086;DHT22;52868;49.758;9.586;2022-11-15T17:27:30;10.80;78.40
66086;DHT22;52868;49.758;9.586;2022-11-15T17:29:56;10.80;78.30
66086;DHT22;52868;49.758;9.586;2022-11-15T17:32:22;10.80;78.00
66086;DHT22;52868;49.758;9.586;2022-11-15T17:34:47;10.80;78.00
66086;DHT22;52868;49.758;9.586;2022-11-15T17:37:13;10.80;77.90
66086;DHT22;52868;49.758;9.586;2022-11-15T17:39:38;10.70;77.90
66086;DHT22;52868;49.758;9.586;2022-11-15T17:42:04;10.80;78.10
66086;DHT22;52868;49.758;9.586;2022-11-15T17:44:31;10.80;78.20
66086;DHT22;52868;49.758;9.586;2022-11-15T17:46:57;10.80;78.30
66086;DHT22;52868;49.758;9.586;2022-11-15T17:49:22;10.80;78.40